Time;durP1;ratioP1;P1;durP2;ratioP2;P2;SDS_P1;SDS_P2;PMS_P1;PMS_P2;Temp;Humidity;BMP_temperature;BMP_pressure;BME280_temperature;BME280_humidity;BME280_pressure;Samples;Min_cycle;Max_cycle;Signal;HPM_P1;HPM_P2
2024/02/01 05:08:35;;;;;;;0.30;0.30;;;9.80;99.90;;;;;;5449610;23;20240;-65
2024/02/01 05:11:01;;;;;;;0.30;0.30;;;9.80;99.90;;;;;;4975031;28;20186;-66
2024/02/01 05:13:30;;;;;;;0.30;0.30;;;9.80;99.90;;;;;;4975201;28;20190;-66
2024/02/01 05:15:58;;;;;;;0.40;0.40;;;9.80;99.90;;;;;;4975280;28;20180;-65
2024/02/01 05:18:23;;;;;;;0.30;0.30;;;9.80;99.90;;;;;;4974757;28;20558;-64
2024/02/01 05:20:50;;;;;;;0.30;0.30;;;9.80;99.90;;;;;;4975153;28;20265;-66
2024/02/01 05:23:15;;;;;;;0.30;0.30;;;9.90;99.90;;;;;;4975171;28;20200;-66
2024/02/01 05:25:41;;;;;;;0.30;0.30;;;9.90;99.90;;;;;;4974975;28;20220;-65
2024/02/01 05:28:09;;;;;;;0.30;0.30;;;9.90;99.90;;;;;;4974416;28;20224;-65
2024/02/01 05:30:35;;;;;;;0.30;0.30;;;9.90;99.90;;;;;;4974610;28;20901;-66
2024/02/01 05:33:01;;;;;;;0.30;0.30;;;9.90;99.90;;;;;;4974488;28;20190;-66
2024/02/01 05:35:29;;;;;;;0.30;0.30;;;9.90;99.90;;;;;;4974815;28;20191;-66
2024/02/01 05:38:03;;;;;;;0.30;0.30;;;9.90;99.90;;;;;;4972937;28;20201;-66
2024/02/01 05:40:30;;;;;;;0.37;0.37;;;9.90;99.90;;;;;;4974598;28;20185;-66
2024/02/01 05:42:56;;;;;;;0.30;0.30;;;9.90;99.90;;;;;;4974163;28;20469;-66
2024/02/01 05:45:22;;;;;;;0.30;0.30;;;9.90;99.90;;;;;;4974563;28;20174;-65
2024/02/01 05:47:51;;;;;;;0.40;0.40;;;9.90;99.90;;;;;;4974291;28;20599;-65
2024/02/01 05:50:17;;;;;;;0.30;0.30;;;9.90;99.90;;;;;;4974465;28;20800;-66
2024/02/01 05:52:42;;;;;;;0.30;0.30;;;9.90;99.90;;;;;;4973879;28;20226;-66
2024/02/01 05:55:10;;;;;;;0.30;0.30;;;9.90;99.90;;;;;;4974359;28;20265;-65
2024/02/01 05:57:36;;;;;;;0.37;0.37;;;9.90;99.90;;;;;;4973961;28;20214;-64
2024/02/01 06:00:10;;;;;;;0.30;0.30;;;9.90;99.90;;;;;;4974439;28;20420;-67
2024/02/01 06:02:36;;;;;;;0.30;0.30;;;9.90;99.90;;;;;;4974201;28;20706;-66
2024/02/01 06:05:02;;;;;;;0.30;0.30;;;9.90;99.90;;;;;;4974152;28;20180;-67
2024/02/01 06:07:27;;;;;;;0.40;0.40;;;9.90;99.90;;;;;;4973072;28;20205;-66
2024/02/01 06:09:53;;;;;;;0.47;0.47;;;9.90;99.90;;;;;;4971735;28;20240;-64
2024/02/01 06:12:19;;;;;;;0.30;0.30;;;9.80;99.90;;;;;;4974185;28;20673;-64
2024/02/01 06:14:45;;;;;;;0.30;0.30;;;9.80;99.90;;;;;;4972924;28;20417;-66
2024/02/01 06:17:10;;;;;;;0.30;0.30;;;9.70;99.90;;;;;;4973755;28;20213;-64
2024/02/01 06:19:36;;;;;;;0.40;0.40;;;9.60;99.90;;;;;;4974179;28;20231;-65
2024/02/01 06:22:05;;;;;;;0.37;0.37;;;9.50;99.90;;;;;;4974073;28;20283;-64
2024/02/01 06:24:35;;;;;;;0.38;0.38;;;9.40;99.90;;;;;;4973811;28;20444;-67
2024/02/01 06:27:01;;;;;;;0.57;0.57;;;9.40;99.90;;;;;;4973301;28;20206;-65
2024/02/01 06:29:27;;;;;;;0.30;0.30;;;9.40;99.90;;;;;;4973729;28;20177;-66
2024/02/01 06:31:53;;;;;;;0.30;0.30;;;9.30;99.90;;;;;;4974175;28;20168;-64
2024/02/01 06:34:26;;;;;;;0.30;0.30;;;9.20;99.90;;;;;;4973779;28;20208;-65
2024/02/01 06:36:58;;;;;;;0.32;0.32;;;9.10;99.90;;;;;;4973174;28;20196;-64
2024/02/01 06:42:32;;;;;;;0.30;0.30;;;9.00;99.90;;;;;;4965491;28;20223;-64
2024/02/01 06:45:19;;;;;;;0.40;0.40;;;8.90;99.90;;;;;;4972556;28;20273;-64
2024/02/01 06:47:49;;;;;;;0.35;0.35;;;8.90;99.90;;;;;;4972967;28;20765;-63
2024/02/01 06:50:16;;;;;;;0.30;0.30;;;8.80;99.90;;;;;;4973349;28;20188;-64
2024/02/01 06:52:43;;;;;;;0.88;0.88;;;8.70;99.90;;;;;;4972987;28;20184;-64
2024/02/01 07:03:13;;;;;;;0.30;0.30;;;8.50;99.90;;;;;;4973968;28;20712;-65
2024/02/01 07:06:25;;;;;;;0.30;0.30;;;8.50;99.90;;;;;;4973137;28;20172;-65
2024/02/01 07:08:55;;;;;;;0.40;0.40;;;8.50;99.90;;;;;;4971958;28;20751;-65
2024/02/01 07:11:25;;;;;;;0.30;0.30;;;8.50;99.90;;;;;;4972905;28;20198;-65
2024/02/01 07:24:59;;;;;;;0.30;0.30;;;8.50;99.90;;;;;;4976435;28;20195;-63
2024/02/01 07:57:55;;;;;;;0.38;0.38;;;8.60;99.90;;;;;;4956727;29;20219;-64
2024/02/01 08:00:33;;;;;;;0.38;0.38;;;8.60;99.90;;;;;;4957259;29;20180;-64
2024/02/01 08:03:42;;;;;;;0.43;0.43;;;8.60;99.90;;;;;;4957136;29;20210;-64
2024/02/01 08:08:36;;;;;;;0.30;0.30;;;8.70;99.90;;;;;;4956925;29;20231;-65
2024/02/01 08:11:03;;;;;;;0.30;0.30;;;8.70;99.90;;;;;;4957100;29;20169;-63
2024/02/01 08:13:28;;;;;;;0.30;0.20;;;8.70;99.90;;;;;;4956821;29;20172;-64
2024/02/01 08:15:55;;;;;;;0.40;0.40;;;8.70;99.90;;;;;;4956780;29;20181;-65
2024/02/01 08:18:23;;;;;;;0.30;0.30;;;8.70;99.90;;;;;;4956367;29;20205;-64
2024/02/01 08:20:48;;;;;;;0.30;0.30;;;8.70;99.90;;;;;;4974499;28;20646;-64
2024/02/01 08:23:19;;;;;;;0.40;0.40;;;8.70;99.90;;;;;;4975978;28;20183;-64
2024/02/01 08:25:48;;;;;;;0.30;0.30;;;8.70;99.90;;;;;;4957001;28;20423;-64
2024/02/01 08:28:15;;;;;;;0.30;0.30;;;8.70;99.90;;;;;;4955028;29;20189;-63
2024/02/01 08:30:42;;;;;;;0.40;0.40;;;8.70;99.90;;;;;;4955047;29;20177;-65
2024/02/01 08:33:19;;;;;;;0.40;0.40;;;8.70;99.90;;;;;;4971275;28;20187;-64
2024/02/01 08:35:46;;;;;;;0.30;0.30;;;8.70;99.90;;;;;;4974600;28;20190;-63
2024/02/01 08:38:12;;;;;;;0.40;0.40;;;8.70;99.90;;;;;;4975308;28;20220;-63
2024/02/01 08:40:42;;;;;;;0.30;0.30;;;8.80;99.90;;;;;;4975656;28;20243;-65
2024/02/01 08:43:10;;;;;;;0.30;0.30;;;8.80;99.90;;;;;;4974830;28;20199;-65
2024/02/01 08:45:40;;;;;;;0.30;0.30;;;8.80;99.90;;;;;;4975423;28;20183;-65
2024/02/01 08:48:09;;;;;;;0.30;0.30;;;8.80;99.90;;;;;;4975005;28;20188;-64
2024/02/01 08:50:48;;;;;;;0.30;0.30;;;8.80;99.90;;;;;;4975159;28;20169;-68
2024/02/01 08:53:14;;;;;;;0.30;0.30;;;8.80;99.90;;;;;;4966840;28;20169;-64
2024/02/01 08:55:41;;;;;;;0.93;0.57;;;8.80;99.90;;;;;;4955935;28;20252;-66
2024/02/01 08:58:11;;;;;;;0.30;0.30;;;8.90;99.90;;;;;;4955561;29;20737;-65
2024/02/01 09:00:42;;;;;;;0.30;0.30;;;8.90;99.90;;;;;;4956146;28;20551;-67
2024/02/01 09:03:17;;;;;;;0.30;0.30;;;8.90;99.90;;;;;;4956038;28;20196;-67
2024/02/01 09:05:47;;;;;;;0.30;0.30;;;8.90;99.90;;;;;;4956196;28;20503;-67
2024/02/01 09:08:36;;;;;;;0.30;0.30;;;8.90;99.90;;;;;;4966988;28;20204;-66
2024/02/01 09:11:11;;;;;;;0.40;0.40;;;8.90;99.90;;;;;;4955944;29;20169;-66
2024/02/01 09:13:37;;;;;;;0.30;0.30;;;9.00;99.90;;;;;;4954721;29;20172;-67
2024/02/01 09:16:03;;;;;;;0.30;0.30;;;9.00;99.90;;;;;;4955798;28;20176;-67
2024/02/01 09:18:29;;;;;;;0.30;0.30;;;9.00;99.90;;;;;;4954097;29;20192;-67
2024/02/01 09:20:55;;;;;;;0.30;0.30;;;8.90;99.90;;;;;;4955679;28;20430;-66
2024/02/01 09:23:24;;;;;;;0.30;0.30;;;8.90;99.90;;;;;;4955457;28;20169;-67
2024/02/01 09:25:49;;;;;;;0.30;0.30;;;8.90;99.90;;;;;;4966594;28;20174;-67
2024/02/01 09:28:15;;;;;;;0.30;0.30;;;9.00;99.90;;;;;;4954924;28;20195;-66
2024/02/01 09:30:46;;;;;;;0.30;0.30;;;9.00;99.90;;;;;;4966419;28;20207;-67
2024/02/01 09:33:16;;;;;;;0.30;0.30;;;9.00;99.90;;;;;;4967451;28;20526;-66
2024/02/01 09:35:43;;;;;;;0.30;0.30;;;9.10;99.90;;;;;;4974703;28;20187;-67
2024/02/01 09:38:09;;;;;;;0.40;0.40;;;9.10;99.90;;;;;;4968827;28;20268;-68
2024/02/01 09:40:41;;;;;;;0.30;0.30;;;9.20;99.90;;;;;;4955399;29;20174;-68
2024/02/01 09:43:17;;;;;;;0.30;0.30;;;9.20;99.90;;;;;;4955521;29;20197;-67
2024/02/01 09:46:02;;;;;;;0.30;0.30;;;9.30;99.90;;;;;;4954459;28;20173;-67
2024/02/01 09:48:28;;;;;;;0.30;0.30;;;9.30;99.90;;;;;;4954792;28;20663;-68
2024/02/01 09:50:57;;;;;;;0.30;0.30;;;9.40;99.90;;;;;;4972983;28;20188;-68
2024/02/01 09:53:27;;;;;;;0.40;0.40;;;9.40;99.90;;;;;;4974432;28;20409;-67
2024/02/01 09:55:55;;;;;;;0.40;0.40;;;9.40;99.90;;;;;;4974453;28;20227;-67
2024/02/01 09:58:21;;;;;;;0.30;0.30;;;9.40;99.90;;;;;;4969090;28;20328;-67
2024/02/01 10:00:48;;;;;;;0.30;0.30;;;9.40;99.90;;;;;;4967034;28;20199;-66
2024/02/01 10:03:15;;;;;;;0.30;0.30;;;9.50;99.90;;;;;;4972896;28;20626;-67
2024/02/01 10:05:42;;;;;;;0.30;0.30;;;9.50;99.90;;;;;;4974262;28;20188;-68
2024/02/01 10:08:11;;;;;;;0.40;0.40;;;9.60;99.90;;;;;;4973743;28;20203;-67
2024/02/01 10:10:38;;;;;;;0.30;0.30;;;9.60;99.90;;;;;;4973467;28;20178;-67
2024/02/01 10:13:06;;;;;;;0.30;0.30;;;9.60;99.90;;;;;;4973429;28;20231;-66
2024/02/01 10:15:33;;;;;;;0.40;0.40;;;9.70;99.90;;;;;;4974051;28;20201;-66
2024/02/01 10:18:01;;;;;;;0.30;0.30;;;9.70;99.90;;;;;;4973772;28;20500;-67
2024/02/01 10:20:39;;;;;;;0.30;0.30;;;9.80;99.90;;;;;;4972216;28;20208;-68
2024/02/01 10:23:06;;;;;;;0.38;0.38;;;9.80;99.90;;;;;;4974327;28;20208;-68
2024/02/01 10:25:34;;;;;;;0.40;0.40;;;9.90;99.90;;;;;;4973415;28;20252;-68
2024/02/01 10:28:01;;;;;;;0.30;0.30;;;9.90;99.90;;;;;;4973485;28;20429;-69
2024/02/01 10:30:26;;;;;;;0.30;0.30;;;9.90;99.90;;;;;;4972869;28;20181;-68
2024/02/01 10:33:00;;;;;;;0.30;0.30;;;9.90;99.90;;;;;;4972751;28;20533;-69
2024/02/01 10:35:29;;;;;;;0.30;0.30;;;9.90;99.90;;;;;;4974158;28;20535;-67
2024/02/01 10:37:55;;;;;;;0.30;0.30;;;9.90;99.90;;;;;;4973612;28;20568;-68
2024/02/01 10:40:26;;;;;;;0.30;0.30;;;9.90;99.90;;;;;;4973287;28;20185;-68
2024/02/01 10:42:59;;;;;;;0.35;0.35;;;9.90;99.90;;;;;;4973744;28;20709;-67
2024/02/01 10:45:30;;;;;;;0.40;0.40;;;9.90;99.90;;;;;;4974188;28;20176;-67
2024/02/01 10:47:59;;;;;;;0.30;0.30;;;9.90;99.90;;;;;;4973607;28;20200;-68
2024/02/01 10:50:32;;;;;;;0.30;0.30;;;10.00;99.90;;;;;;4973383;28;20227;-68
2024/02/01 10:52:59;;;;;;;0.30;0.30;;;10.00;99.90;;;;;;4974120;28;20179;-67
2024/02/01 10:55:26;;;;;;;0.30;0.30;;;10.00;99.90;;;;;;4972899;28;20192;-67
2024/02/01 10:57:53;;;;;;;0.30;0.30;;;10.00;99.90;;;;;;4976926;28;20683;-66
2024/02/01 11:00:20;;;;;;;0.30;0.30;;;10.10;99.90;;;;;;4977491;28;20268;-67
2024/02/01 11:02:54;;;;;;;0.30;0.30;;;10.20;99.90;;;;;;4976274;28;20520;-66
2024/02/01 11:05:26;;;;;;;0.30;0.30;;;10.30;99.90;;;;;;4977029;28;20422;-67
2024/02/01 11:07:52;;;;;;;0.30;0.20;;;10.30;99.90;;;;;;4976876;28;20430;-67
2024/02/01 11:10:23;;;;;;;0.30;0.20;;;10.30;99.90;;;;;;4977684;28;20494;-67
2024/02/01 11:12:54;;;;;;;0.33;0.33;;;10.40;99.90;;;;;;4977383;28;20253;-68
2024/02/01 11:15:23;;;;;;;0.30;0.20;;;10.40;99.90;;;;;;4975439;28;20516;-69
2024/02/01 11:17:49;;;;;;;0.30;0.30;;;10.40;99.90;;;;;;4977047;28;20449;-69
2024/02/01 11:20:25;;;;;;;0.30;0.30;;;10.40;99.90;;;;;;4975756;28;20425;-69
2024/02/01 11:22:57;;;;;;;0.30;0.30;;;10.40;99.90;;;;;;4977238;28;20465;-68
2024/02/01 11:25:27;;;;;;;0.57;0.57;;;10.40;99.90;;;;;;4965547;28;20480;-67
2024/02/01 11:27:53;;;;;;;0.30;0.20;;;10.40;99.90;;;;;;4957495;28;20404;-70
2024/02/01 11:30:28;;;;;;;0.30;0.30;;;10.30;99.90;;;;;;4973541;28;20504;-69
2024/02/01 11:32:55;;;;;;;0.30;0.30;;;10.30;99.90;;;;;;4977226;28;20431;-71
2024/02/01 11:35:23;;;;;;;0.40;0.40;;;10.30;99.90;;;;;;4977327;28;20176;-70
2024/02/01 11:38:01;;;;;;;0.37;0.37;;;10.30;99.90;;;;;;4976614;28;20433;-69
2024/02/01 11:40:27;;;;;;;0.40;0.40;;;10.40;99.90;;;;;;4976632;28;20448;-68
2024/02/01 11:42:53;;;;;;;0.30;0.30;;;10.40;99.90;;;;;;4977186;28;20206;-70
2024/02/01 11:45:19;;;;;;;0.30;0.20;;;10.40;99.90;;;;;;4977061;28;20426;-67
2024/02/01 11:47:45;;;;;;;0.30;0.30;;;10.40;99.90;;;;;;4975136;28;20520;-68
2024/02/01 11:50:11;;;;;;;0.43;0.43;;;10.50;99.90;;;;;;4963604;28;20183;-70
2024/02/01 11:52:54;;;;;;;0.30;0.30;;;10.50;99.90;;;;;;4956592;29;20287;-68
2024/02/01 11:55:20;;;;;;;0.30;0.30;;;10.60;99.90;;;;;;4957293;28;20416;-70
2024/02/01 11:57:48;;;;;;;0.40;0.40;;;10.60;99.90;;;;;;4957054;29;20431;-69
2024/02/01 12:00:18;;;;;;;0.30;0.30;;;10.70;99.90;;;;;;4958053;28;20455;-69
2024/02/01 12:02:47;;;;;;;0.33;0.33;;;10.80;99.90;;;;;;4958272;29;20536;-67
2024/02/01 12:05:20;;;;;;;0.30;0.30;;;10.80;99.90;;;;;;4956846;29;20928;-67
2024/02/01 12:07:46;;;;;;;0.30;0.30;;;10.80;99.90;;;;;;4956062;28;20627;-67
2024/02/01 12:10:15;;;;;;;0.40;0.40;;;10.90;99.90;;;;;;4957312;28;20430;-66
2024/02/01 12:12:44;;;;;;;0.30;0.30;;;10.80;99.90;;;;;;4956948;28;20493;-67
2024/02/01 12:15:11;;;;;;;0.30;0.30;;;10.80;99.90;;;;;;4957028;29;20810;-67
2024/02/01 12:17:45;;;;;;;0.67;0.67;;;10.80;99.90;;;;;;4957056;28;20434;-67
2024/02/01 12:20:28;;;;;;;1.40;1.30;;;10.80;99.90;;;;;;4968400;28;20481;-69
2024/02/01 12:22:57;;;;;;;0.30;0.30;;;10.80;99.90;;;;;;4976625;28;20465;-68
2024/02/01 12:25:23;;;;;;;0.30;0.30;;;10.80;99.90;;;;;;4976130;28;20500;-68
2024/02/01 12:27:50;;;;;;;0.30;0.30;;;10.80;99.90;;;;;;4975494;28;20437;-69
2024/02/01 12:30:16;;;;;;;0.30;0.30;;;10.80;99.90;;;;;;4964602;28;20431;-68
2024/02/01 12:32:44;;;;;;;0.30;0.30;;;10.80;99.90;;;;;;4956624;28;20419;-68
2024/02/01 12:35:12;;;;;;;0.30;0.30;;;10.80;99.90;;;;;;4956493;29;20530;-69
2024/02/01 12:37:41;;;;;;;0.30;0.30;;;10.80;99.90;;;;;;4954886;29;20593;-67
2024/02/01 12:40:10;;;;;;;0.30;0.30;;;10.80;99.90;;;;;;4965982;28;20448;-68
2024/02/01 12:42:36;;;;;;;0.30;0.30;;;10.70;99.90;;;;;;4975959;28;20238;-69
2024/02/01 12:45:02;;;;;;;0.63;0.63;;;10.70;99.90;;;;;;4974539;28;20392;-67
2024/02/01 12:47:29;;;;;;;0.30;0.30;;;10.70;99.90;;;;;;4974303;28;20471;-66
2024/02/01 12:49:56;;;;;;;0.30;0.30;;;10.70;99.90;;;;;;4957645;28;20512;-64
2024/02/01 12:52:21;;;;;;;0.30;0.30;;;10.70;99.90;;;;;;4975535;28;20981;-64
2024/02/01 12:54:47;;;;;;;0.30;0.30;;;10.60;99.90;;;;;;4975691;28;20459;-64
2024/02/01 12:57:13;;;;;;;0.30;0.30;;;10.50;99.90;;;;;;4975307;28;20229;-64
2024/02/01 12:59:38;;;;;;;0.30;0.30;;;10.50;99.90;;;;;;4969979;28;20176;-64
2024/02/01 13:02:09;;;;;;;1.27;1.27;;;10.50;99.90;;;;;;4959681;29;20204;-64
2024/02/01 13:04:34;;;;;;;0.40;0.40;;;10.50;99.90;;;;;;4967029;29;20171;-67
2024/02/01 13:07:00;;;;;;;0.30;0.30;;;10.50;99.90;;;;;;4971715;28;20194;-66
2024/02/01 13:09:28;;;;;;;0.30;0.30;;;10.50;99.90;;;;;;4986137;28;20192;-68
2024/02/01 13:12:02;;;;;;;0.30;0.30;;;10.50;99.90;;;;;;4982584;28;20179;-69
2024/02/01 13:14:31;;;;;;;0.32;0.32;;;10.40;99.90;;;;;;4966545;29;20457;-68
2024/02/01 13:16:59;;;;;;;0.30;0.30;;;10.40;99.90;;;;;;4962955;29;20178;-67
2024/02/01 13:19:25;;;;;;;0.30;0.30;;;10.40;99.90;;;;;;4962766;28;20176;-70
2024/02/01 13:21:51;;;;;;;0.30;0.30;;;10.40;99.90;;;;;;4957000;29;20209;-67
2024/02/01 13:24:17;;;;;;;0.30;0.30;;;10.40;99.90;;;;;;4962420;28;20173;-65
2024/02/01 13:26:42;;;;;;;0.30;0.30;;;10.40;99.90;;;;;;4975681;28;20925;-66
2024/02/01 13:29:13;;;;;;;0.30;0.30;;;10.40;99.90;;;;;;4976587;28;20539;-67
2024/02/01 13:31:44;;;;;;;0.30;0.30;;;10.40;99.90;;;;;;4978061;28;20312;-68
2024/02/01 13:34:09;;;;;;;0.30;0.30;;;10.40;99.90;;;;;;4983387;28;20185;-67
2024/02/01 13:36:35;;;;;;;0.30;0.30;;;10.40;99.90;;;;;;4983491;28;20420;-69
2024/02/01 13:39:05;;;;;;;0.30;0.30;;;10.40;99.90;;;;;;4982593;28;20200;-69
2024/02/01 13:41:32;;;;;;;0.30;0.30;;;10.40;99.90;;;;;;4965062;28;20619;-68
2024/02/01 13:43:59;;;;;;;0.40;0.40;;;10.40;99.90;;;;;;4956248;28;20445;-68
2024/02/01 13:46:25;;;;;;;0.38;0.38;;;10.50;99.90;;;;;;4955617;28;20200;-69
2024/02/01 13:48:50;;;;;;;0.30;0.30;;;10.50;99.90;;;;;;4955431;29;20233;-69
2024/02/01 13:51:16;;;;;;;0.30;0.30;;;10.50;99.90;;;;;;4965418;28;20220;-68
2024/02/01 13:53:41;;;;;;;0.30;0.30;;;10.50;99.90;;;;;;4975290;28;20171;-68
2024/02/01 13:56:08;;;;;;;0.30;0.30;;;10.50;99.90;;;;;;4974883;28;20170;-70
2024/02/01 13:58:34;;;;;;;0.30;0.30;;;10.40;99.90;;;;;;4974590;28;20186;-70
2024/02/01 14:00:59;;;;;;;0.33;0.33;;;10.40;99.90;;;;;;4966786;28;20481;-69
2024/02/01 14:03:25;;;;;;;0.30;0.20;;;10.40;99.90;;;;;;4955542;28;20461;-69
2024/02/01 14:05:51;;;;;;;0.30;0.30;;;10.40;99.90;;;;;;4955331;28;20269;-68
2024/02/01 14:08:16;;;;;;;0.30;0.27;;;10.40;99.90;;;;;;4960023;28;20571;-66
2024/02/01 14:10:42;;;;;;;0.30;0.30;;;10.40;99.90;;;;;;4973865;28;20233;-67
2024/02/01 14:13:07;;;;;;;0.30;0.30;;;10.30;99.90;;;;;;4970411;28;20178;-67
2024/02/01 14:15:36;;;;;;;0.30;0.30;;;10.30;99.90;;;;;;4974249;28;20176;-70
2024/02/01 14:18:01;;;;;;;0.30;0.30;;;10.30;99.90;;;;;;4973949;28;20209;-69
2024/02/01 14:20:27;;;;;;;0.30;0.30;;;10.30;99.90;;;;;;4973156;28;20433;-68
2024/02/01 14:22:52;;;;;;;0.30;0.30;;;10.20;99.90;;;;;;4973963;28;20351;-66
2024/02/01 14:25:18;;;;;;;0.70;0.40;;;10.20;99.90;;;;;;4955086;29;20588;-66
2024/02/01 14:27:44;;;;;;;0.30;0.30;;;10.20;99.90;;;;;;4954371;29;20199;-68
2024/02/01 14:30:10;;;;;;;0.33;0.33;;;10.10;99.90;;;;;;4968980;28;20256;-68
2024/02/01 14:32:40;;;;;;;0.30;0.30;;;10.10;99.90;;;;;;4977387;28;20193;-67
2024/02/01 14:35:07;;;;;;;0.60;0.60;;;10.00;99.90;;;;;;4978137;28;20440;-68
2024/02/01 14:37:33;;;;;;;0.30;0.30;;;10.00;99.90;;;;;;4977608;28;20543;-68
2024/02/01 14:39:59;;;;;;;0.30;0.30;;;9.90;99.90;;;;;;4976917;28;20189;-68
2024/02/01 14:42:25;;;;;;;0.40;0.40;;;9.90;99.90;;;;;;4977511;28;20206;-67
2024/02/01 14:44:51;;;;;;;0.30;0.20;;;9.90;99.90;;;;;;4976665;28;20173;-68
2024/02/01 14:47:16;;;;;;;0.57;0.57;;;9.90;99.90;;;;;;4976995;28;20885;-68
2024/02/01 14:49:42;;;;;;;0.40;0.40;;;9.90;99.90;;;;;;4972735;28;20200;-68
2024/02/01 14:52:11;;;;;;;0.60;0.60;;;9.80;99.90;;;;;;4957273;29;20188;-68
2024/02/01 14:54:36;;;;;;;0.30;0.30;;;9.80;99.90;;;;;;4964518;28;20778;-69
2024/02/01 14:57:02;;;;;;;0.30;0.30;;;9.70;99.90;;;;;;4976372;28;20181;-68
2024/02/01 14:59:28;;;;;;;0.30;0.30;;;9.70;99.90;;;;;;4977447;28;20412;-67
2024/02/01 15:01:53;;;;;;;0.30;0.30;;;9.70;99.90;;;;;;4977478;28;20199;-68
2024/02/01 15:04:19;;;;;;;0.40;0.40;;;9.70;99.90;;;;;;4971958;28;20248;-68
2024/02/01 15:06:44;;;;;;;0.30;0.30;;;9.70;99.90;;;;;;4956547;29;20178;-68
2024/02/01 15:09:11;;;;;;;0.30;0.20;;;9.80;99.90;;;;;;4957841;28;20297;-68
2024/02/01 15:11:37;;;;;;;0.30;0.30;;;9.70;99.90;;;;;;4958153;29;20621;-69
2024/02/01 15:14:03;;;;;;;0.30;0.30;;;9.70;99.90;;;;;;4958742;28;20238;-68
2024/02/01 15:16:30;;;;;;;0.30;0.30;;;9.70;99.90;;;;;;4976966;28;20176;-68
2024/02/01 15:19:00;;;;;;;0.50;0.50;;;9.80;99.90;;;;;;4975956;28;20201;-68
2024/02/01 15:21:30;;;;;;;0.40;0.40;;;9.80;99.90;;;;;;4977269;28;20205;-68
2024/02/01 15:23:56;;;;;;;0.30;0.30;;;9.80;99.90;;;;;;4977291;28;20407;-70
2024/02/01 15:26:21;;;;;;;0.40;0.40;;;9.80;99.90;;;;;;4974990;28;20701;-68
2024/02/01 15:28:47;;;;;;;0.30;0.30;;;9.70;99.90;;;;;;4977028;28;20761;-68
2024/02/01 15:31:16;;;;;;;0.30;0.30;;;9.70;99.90;;;;;;4975729;28;20274;-68
2024/02/01 15:33:45;;;;;;;0.30;0.20;;;9.70;99.90;;;;;;4973566;28;20171;-66
2024/02/01 15:36:11;;;;;;;0.30;0.30;;;9.70;99.90;;;;;;4957190;29;20231;-70
2024/02/01 15:38:36;;;;;;;0.30;0.30;;;9.70;99.90;;;;;;4940112;29;20630;-68
2024/02/01 15:41:03;;;;;;;0.30;0.30;;;9.70;99.90;;;;;;4957460;28;20230;-68
2024/02/01 15:43:29;;;;;;;0.30;0.30;;;9.70;99.90;;;;;;4957355;28;20178;-69
2024/02/01 15:45:55;;;;;;;0.30;0.30;;;9.70;99.90;;;;;;4967718;28;20424;-69
2024/02/01 15:48:22;;;;;;;0.30;0.30;;;9.70;99.90;;;;;;4957372;28;20425;-68
2024/02/01 15:50:48;;;;;;;0.30;0.30;;;9.70;99.90;;;;;;4957276;28;20398;-69
2024/02/01 15:53:18;;;;;;;0.40;0.40;;;9.70;99.90;;;;;;4982072;28;20259;-67
2024/02/01 15:55:44;;;;;;;0.30;0.30;;;9.70;99.90;;;;;;4984953;28;20416;-67
2024/02/01 15:58:11;;;;;;;0.40;0.40;;;9.70;99.90;;;;;;4975718;28;20630;-67
2024/02/01 16:00:41;;;;;;;0.35;0.35;;;9.70;99.90;;;;;;4995948;28;20172;-69
2024/02/01 16:03:10;;;;;;;0.30;0.30;;;9.70;99.90;;;;;;4994137;28;20288;-68
2024/02/01 16:06:09;;;;;;;0.40;0.40;;;9.70;99.90;;;;;;4989156;28;20540;-69
2024/02/01 16:08:58;;;;;;;0.30;0.30;;;9.70;99.90;;;;;;4974419;28;20524;-69
2024/02/01 16:11:32;;;;;;;0.30;0.20;;;9.70;99.90;;;;;;4975126;28;20773;-68
2024/02/01 16:14:00;;;;;;;0.30;0.30;;;9.60;99.90;;;;;;4990777;28;20303;-68
2024/02/01 16:16:36;;;;;;;0.30;0.30;;;9.60;99.90;;;;;;4981188;28;20181;-70
2024/02/01 16:19:14;;;;;;;0.30;0.30;;;9.60;99.90;;;;;;4974092;28;20211;-66
2024/02/01 16:21:40;;;;;;;0.30;0.30;;;9.50;99.90;;;;;;4973790;28;20215;-66
2024/02/01 16:24:10;;;;;;;0.30;0.30;;;9.40;99.90;;;;;;4976081;28;20168;-69
2024/02/01 16:26:38;;;;;;;0.30;0.30;;;9.30;99.90;;;;;;4962978;28;20425;-67
2024/02/01 16:29:10;;;;;;;0.30;0.30;;;9.20;99.90;;;;;;4955302;29;20193;-67
2024/02/01 16:31:37;;;;;;;0.30;0.30;;;9.10;99.90;;;;;;4956580;28;20520;-68
2024/02/01 16:34:27;;;;;;;0.30;0.30;;;9.00;99.90;;;;;;4955279;29;20188;-67
2024/02/01 16:37:00;;;;;;;0.40;0.40;;;8.90;99.90;;;;;;4968291;28;20202;-69
2024/02/01 16:39:25;;;;;;;0.30;0.30;;;8.80;99.90;;;;;;4975552;28;20164;-68
2024/02/01 16:41:57;;;;;;;0.30;0.30;;;8.70;99.90;;;;;;4974156;28;20211;-69
2024/02/01 16:44:38;;;;;;;0.30;0.30;;;8.60;99.90;;;;;;4956456;28;20173;-69
2024/02/01 16:47:04;;;;;;;0.30;0.30;;;8.50;99.90;;;;;;4969730;28;20171;-69
2024/02/01 16:49:36;;;;;;;0.30;0.30;;;8.40;99.90;;;;;;4976228;28;20567;-69
2024/02/01 16:52:02;;;;;;;0.38;0.38;;;8.30;99.90;;;;;;4975429;28;20219;-69
2024/02/01 16:54:29;;;;;;;0.50;0.50;;;8.20;99.90;;;;;;4973085;28;20275;-68
2024/02/01 16:56:58;;;;;;;0.30;0.30;;;8.20;99.90;;;;;;4974056;28;20798;-68
2024/02/01 16:59:25;;;;;;;0.40;0.40;;;8.10;99.90;;;;;;4974940;28;20229;-69
2024/02/01 17:01:54;;;;;;;0.40;0.40;;;8.00;99.90;;;;;;4955718;29;20197;-68
2024/02/01 17:04:28;;;;;;;0.80;0.80;;;7.90;99.90;;;;;;4954207;29;20211;-68
2024/02/01 17:06:54;;;;;;;0.57;0.57;;;7.80;99.90;;;;;;4968821;28;20183;-67
2024/02/01 17:09:28;;;;;;;0.30;0.30;;;7.80;99.90;;;;;;4973385;28;20220;-68
2024/02/01 17:11:56;;;;;;;0.30;0.30;;;7.70;99.90;;;;;;4974903;28;20161;-68
2024/02/01 17:14:24;;;;;;;0.30;0.30;;;7.70;99.90;;;;;;4974756;28;20673;-69
2024/02/01 17:17:01;;;;;;;0.50;0.50;;;7.70;99.90;;;;;;4960037;28;20185;-69
2024/02/01 17:19:32;;;;;;;0.30;0.30;;;7.60;99.90;;;;;;4956754;28;20598;-69
2024/02/01 17:21:58;;;;;;;0.30;0.30;;;7.60;99.90;;;;;;4955340;28;20201;-69
2024/02/01 17:24:25;;;;;;;0.35;0.35;;;7.60;99.90;;;;;;4955816;28;20247;-69
2024/02/01 17:26:53;;;;;;;0.30;0.30;;;7.60;99.90;;;;;;4953646;29;20650;-68
2024/02/01 17:29:21;;;;;;;0.40;0.40;;;7.50;99.90;;;;;;4955632;28;20208;-68
2024/02/01 17:31:50;;;;;;;0.82;0.80;;;7.60;99.90;;;;;;4955700;28;20185;-68
2024/02/01 17:34:38;;;;;;;0.40;0.40;;;7.60;99.90;;;;;;4955985;28;20176;-68
2024/02/01 17:37:34;;;;;;;0.30;0.30;;;7.60;99.90;;;;;;4962578;28;20238;-68
2024/02/01 17:40:00;;;;;;;0.30;0.30;;;7.60;99.90;;;;;;4956647;28;20677;-70
2024/02/01 17:42:33;;;;;;;0.30;0.30;;;7.50;99.90;;;;;;4954034;29;20232;-67
2024/02/01 17:44:58;;;;;;;0.30;0.30;;;7.50;99.90;;;;;;4955297;28;20201;-69
2024/02/01 17:47:24;;;;;;;0.40;0.40;;;7.40;99.90;;;;;;4964598;28;20238;-68
2024/02/01 17:49:53;;;;;;;0.40;0.40;;;7.40;99.90;;;;;;4974301;28;20183;-67
2024/02/01 17:52:48;;;;;;;0.30;0.30;;;7.40;99.90;;;;;;4974361;28;20479;-69
2024/02/01 17:55:23;;;;;;;0.40;0.40;;;7.30;99.90;;;;;;4974708;28;20734;-68
2024/02/01 17:57:58;;;;;;;0.30;0.30;;;7.20;99.90;;;;;;4973893;28;20199;-68
2024/02/01 18:00:26;;;;;;;0.45;0.45;;;7.20;99.90;;;;;;4973304;28;20240;-67
2024/02/01 18:02:53;;;;;;;0.30;0.30;;;7.20;99.90;;;;;;4973604;28;20202;-66
2024/02/01 18:05:23;;;;;;;1.48;1.02;;;7.10;99.90;;;;;;4973315;28;20214;-68
2024/02/01 18:07:52;;;;;;;0.30;0.30;;;7.10;99.90;;;;;;4972835;28;20196;-67
2024/02/01 18:10:20;;;;;;;0.50;0.50;;;7.10;99.90;;;;;;4954947;28;20532;-66
2024/02/01 18:12:46;;;;;;;0.30;0.30;;;7.00;99.90;;;;;;4954917;29;20169;-67
2024/02/01 18:15:21;;;;;;;0.30;0.30;;;7.10;99.90;;;;;;4968997;28;20667;-67
2024/02/01 18:17:47;;;;;;;0.30;0.30;;;7.00;99.90;;;;;;4973185;28;20226;-69
2024/02/01 18:20:22;;;;;;;0.40;0.40;;;7.00;99.90;;;;;;4974188;28;20172;-66
2024/02/01 18:22:51;;;;;;;0.38;0.38;;;7.00;99.90;;;;;;4974141;28;20191;-67
2024/02/01 18:25:40;;;;;;;0.30;0.30;;;7.00;99.90;;;;;;4972665;28;20186;-64
2024/02/01 18:28:15;;;;;;;0.30;0.30;;;7.10;99.90;;;;;;4973118;28;20207;-67
2024/02/01 18:30:42;;;;;;;0.30;0.30;;;7.10;99.90;;;;;;4974092;28;20183;-69
2024/02/01 18:33:10;;;;;;;0.30;0.30;;;7.10;99.90;;;;;;4974040;28;20238;-67
2024/02/01 18:35:52;;;;;;;0.40;0.40;;;7.20;99.90;;;;;;4973422;28;20190;-69
2024/02/01 18:38:18;;;;;;;0.30;0.30;;;7.20;99.90;;;;;;4957626;28;20207;-66
2024/02/01 18:40:49;;;;;;;0.33;0.33;;;7.30;99.90;;;;;;4954687;29;20175;-66
2024/02/01 18:43:24;;;;;;;0.30;0.30;;;7.30;99.90;;;;;;4954589;29;20197;-68
2024/02/01 18:45:50;;;;;;;0.45;0.45;;;7.40;99.90;;;;;;4954685;29;20173;-66
2024/02/01 18:48:25;;;;;;;0.30;0.30;;;7.50;99.90;;;;;;4954066;28;20224;-69
2024/02/01 18:50:55;;;;;;;0.30;0.30;;;7.50;99.90;;;;;;4959894;28;20179;-69
2024/02/01 18:53:42;;;;;;;0.30;0.30;;;7.60;99.90;;;;;;4958540;28;20581;-67
2024/02/01 18:56:23;;;;;;;0.30;0.30;;;7.60;99.90;;;;;;4973619;28;20180;-70
2024/02/01 18:58:49;;;;;;;0.30;0.30;;;7.70;99.90;;;;;;4955333;28;20255;-67
2024/02/01 19:01:22;;;;;;;0.30;0.30;;;7.80;99.90;;;;;;4970836;28;20227;-70
2024/02/01 19:04:04;;;;;;;0.50;0.50;;;7.80;99.90;;;;;;4973245;28;20178;-69
2024/02/01 19:06:37;;;;;;;0.30;0.30;;;7.90;99.90;;;;;;4972927;28;20183;-70